sensor_id;sensor_type;location;lat;lon;timestamp;P1;durP1;ratioP1;P2;durP2;ratioP2
21786;SDS011;11055;50.870;4.316;2023-11-19T00:00:27;7.03;;;4.40;;
21786;SDS011;11055;50.870;4.316;2023-11-19T00:02:53;11.05;;;4.80;;
21786;SDS011;11055;50.870;4.316;2023-11-19T00:05:18;12.80;;;5.00;;
21786;SDS011;11055;50.870;4.316;2023-11-19T00:07:44;8.63;;;4.70;;
21786;SDS011;11055;50.870;4.316;2023-11-19T00:10:11;11.30;;;4.72;;
21786;SDS011;11055;50.870;4.316;2023-11-19T00:12:38;9.93;;;4.78;;
21786;SDS011;11055;50.870;4.316;2023-11-19T00:15:05;8.65;;;5.13;;
21786;SDS011;11055;50.870;4.316;2023-11-19T00:17:32;11.70;;;4.93;;
21786;SDS011;11055;50.870;4.316;2023-11-19T00:19:57;10.00;;;4.25;;
21786;SDS011;11055;50.870;4.316;2023-11-19T00:22:23;13.10;;;4.78;;
21786;SDS011;11055;50.870;4.316;2023-11-19T00:24:50;13.43;;;4.70;;
21786;SDS011;11055;50.870;4.316;2023-11-19T00:27:16;11.18;;;4.47;;
21786;SDS011;11055;50.870;4.316;2023-11-19T00:29:43;12.10;;;4.63;;
21786;SDS011;11055;50.870;4.316;2023-11-19T00:32:10;9.20;;;4.30;;
21786;SDS011;11055;50.870;4.316;2023-11-19T00:34:37;14.40;;;4.90;;
21786;SDS011;11055;50.870;4.316;2023-11-19T00:37:03;12.65;;;4.75;;
21786;SDS011;11055;50.870;4.316;2023-11-19T00:39:29;9.57;;;3.85;;
21786;SDS011;11055;50.870;4.316;2023-11-19T00:41:55;10.23;;;4.03;;
21786;SDS011;11055;50.870;4.316;2023-11-19T00:44:20;10.07;;;3.70;;
21786;SDS011;11055;50.870;4.316;2023-11-19T00:46:46;7.55;;;3.72;;
21786;SDS011;11055;50.870;4.316;2023-11-19T00:49:12;8.02;;;3.55;;
21786;SDS011;11055;50.870;4.316;2023-11-19T00:51:38;13.45;;;4.40;;
21786;SDS011;11055;50.870;4.316;2023-11-19T00:54:03;23.83;;;3.90;;
21786;SDS011;11055;50.870;4.316;2023-11-19T00:56:29;15.35;;;3.85;;
21786;SDS011;11055;50.870;4.316;2023-11-19T00:58:55;15.68;;;4.15;;
21786;SDS011;11055;50.870;4.316;2023-11-19T01:01:21;13.63;;;3.30;;
21786;SDS011;11055;50.870;4.316;2023-11-19T01:03:47;14.82;;;4.60;;
21786;SDS011;11055;50.870;4.316;2023-11-19T01:06:12;10.30;;;3.10;;
21786;SDS011;11055;50.870;4.316;2023-11-19T01:08:39;15.60;;;3.47;;
21786;SDS011;11055;50.870;4.316;2023-11-19T01:11:04;10.45;;;3.25;;
21786;SDS011;11055;50.870;4.316;2023-11-19T01:13:30;13.88;;;3.65;;
21786;SDS011;11055;50.870;4.316;2023-11-19T01:15:56;18.10;;;3.28;;
21786;SDS011;11055;50.870;4.316;2023-11-19T01:18:21;9.00;;;3.33;;
21786;SDS011;11055;50.870;4.316;2023-11-19T01:20:47;16.67;;;3.60;;
21786;SDS011;11055;50.870;4.316;2023-11-19T01:23:13;15.68;;;3.67;;
21786;SDS011;11055;50.870;4.316;2023-11-19T01:25:38;12.75;;;3.33;;
21786;SDS011;11055;50.870;4.316;2023-11-19T01:28:04;10.85;;;3.67;;
21786;SDS011;11055;50.870;4.316;2023-11-19T01:30:30;15.40;;;3.50;;
21786;SDS011;11055;50.870;4.316;2023-11-19T01:32:55;14.70;;;4.30;;
21786;SDS011;11055;50.870;4.316;2023-11-19T01:35:21;14.88;;;3.80;;
21786;SDS011;11055;50.870;4.316;2023-11-19T01:37:48;43.50;;;23.05;;
21786;SDS011;11055;50.870;4.316;2023-11-19T01:40:15;17.45;;;6.88;;
21786;SDS011;11055;50.870;4.316;2023-11-19T01:42:46;17.92;;;4.68;;
21786;SDS011;11055;50.870;4.316;2023-11-19T01:45:16;12.07;;;3.13;;
21786;SDS011;11055;50.870;4.316;2023-11-19T01:47:49;19.23;;;4.55;;
21786;SDS011;11055;50.870;4.316;2023-11-19T01:50:16;20.27;;;3.67;;
21786;SDS011;11055;50.870;4.316;2023-11-19T01:52:42;13.27;;;3.53;;
21786;SDS011;11055;50.870;4.316;2023-11-19T01:55:08;20.38;;;3.78;;
21786;SDS011;11055;50.870;4.316;2023-11-19T01:57:36;24.20;;;4.80;;
21786;SDS011;11055;50.870;4.316;2023-11-19T02:00:04;17.27;;;3.90;;
21786;SDS011;11055;50.870;4.316;2023-11-19T02:02:31;19.30;;;3.85;;
21786;SDS011;11055;50.870;4.316;2023-11-19T02:04:57;21.05;;;3.65;;
21786;SDS011;11055;50.870;4.316;2023-11-19T02:07:22;19.35;;;4.40;;
21786;SDS011;11055;50.870;4.316;2023-11-19T02:09:49;17.65;;;4.50;;
21786;SDS011;11055;50.870;4.316;2023-11-19T02:12:15;21.88;;;4.13;;
21786;SDS011;11055;50.870;4.316;2023-11-19T02:14:40;15.27;;;3.90;;
21786;SDS011;11055;50.870;4.316;2023-11-19T02:17:06;18.33;;;4.18;;
21786;SDS011;11055;50.870;4.316;2023-11-19T02:19:32;20.73;;;4.30;;
21786;SDS011;11055;50.870;4.316;2023-11-19T02:21:57;24.00;;;4.20;;
21786;SDS011;11055;50.870;4.316;2023-11-19T02:24:23;19.13;;;4.30;;
21786;SDS011;11055;50.870;4.316;2023-11-19T02:27:03;21.75;;;3.88;;
21786;SDS011;11055;50.870;4.316;2023-11-19T02:29:35;20.27;;;3.55;;
21786;SDS011;11055;50.870;4.316;2023-11-19T02:32:02;23.48;;;4.40;;
21786;SDS011;11055;50.870;4.316;2023-11-19T02:34:28;19.90;;;4.35;;
21786;SDS011;11055;50.870;4.316;2023-11-19T02:36:54;20.40;;;4.43;;
21786;SDS011;11055;50.870;4.316;2023-11-19T02:39:19;21.73;;;4.30;;
21786;SDS011;11055;50.870;4.316;2023-11-19T02:41:47;17.63;;;3.63;;
21786;SDS011;11055;50.870;4.316;2023-11-19T02:44:15;20.63;;;3.85;;
21786;SDS011;11055;50.870;4.316;2023-11-19T02:46:41;16.48;;;3.67;;
21786;SDS011;11055;50.870;4.316;2023-11-19T02:49:07;22.52;;;3.90;;
21786;SDS011;11055;50.870;4.316;2023-11-19T02:51:33;17.45;;;4.50;;
21786;SDS011;11055;50.870;4.316;2023-11-19T02:53:59;20.25;;;4.63;;
21786;SDS011;11055;50.870;4.316;2023-11-19T02:56:28;18.83;;;4.25;;
21786;SDS011;11055;50.870;4.316;2023-11-19T02:58:59;17.73;;;4.57;;
21786;SDS011;11055;50.870;4.316;2023-11-19T03:01:33;16.77;;;3.65;;
21786;SDS011;11055;50.870;4.316;2023-11-19T03:04:00;25.75;;;3.78;;
21786;SDS011;11055;50.870;4.316;2023-11-19T03:06:27;19.83;;;4.07;;
21786;SDS011;11055;50.870;4.316;2023-11-19T03:08:53;24.38;;;3.78;;
21786;SDS011;11055;50.870;4.316;2023-11-19T03:11:20;20.83;;;3.83;;
21786;SDS011;11055;50.870;4.316;2023-11-19T03:13:45;15.95;;;3.97;;
21786;SDS011;11055;50.870;4.316;2023-11-19T03:16:11;17.95;;;4.38;;
21786;SDS011;11055;50.870;4.316;2023-11-19T03:18:38;23.08;;;3.85;;
21786;SDS011;11055;50.870;4.316;2023-11-19T03:21:05;23.50;;;4.10;;
21786;SDS011;11055;50.870;4.316;2023-11-19T03:23:32;26.20;;;4.00;;
21786;SDS011;11055;50.870;4.316;2023-11-19T03:25:58;23.95;;;3.95;;
21786;SDS011;11055;50.870;4.316;2023-11-19T03:28:24;20.38;;;3.65;;
21786;SDS011;11055;50.870;4.316;2023-11-19T03:30:49;22.63;;;4.07;;
21786;SDS011;11055;50.870;4.316;2023-11-19T03:33:15;22.05;;;3.97;;
21786;SDS011;11055;50.870;4.316;2023-11-19T03:35:41;20.85;;;4.35;;
21786;SDS011;11055;50.870;4.316;2023-11-19T03:38:07;17.05;;;3.47;;
21786;SDS011;11055;50.870;4.316;2023-11-19T03:40:32;28.38;;;4.20;;
21786;SDS011;11055;50.870;4.316;2023-11-19T03:42:58;17.88;;;2.90;;
21786;SDS011;11055;50.870;4.316;2023-11-19T03:45:24;15.73;;;3.35;;
21786;SDS011;11055;50.870;4.316;2023-11-19T03:47:50;23.98;;;4.28;;
21786;SDS011;11055;50.870;4.316;2023-11-19T03:50:16;23.88;;;3.58;;
21786;SDS011;11055;50.870;4.316;2023-11-19T03:52:43;18.23;;;4.05;;
21786;SDS011;11055;50.870;4.316;2023-11-19T03:55:27;20.45;;;3.60;;
21786;SDS011;11055;50.870;4.316;2023-11-19T03:57:54;20.55;;;4.20;;
21786;SDS011;11055;50.870;4.316;2023-11-19T04:00:22;13.05;;;3.50;;
21786;SDS011;11055;50.870;4.316;2023-11-19T04:02:48;21.92;;;3.53;;
21786;SDS011;11055;50.870;4.316;2023-11-19T04:05:14;21.00;;;4.45;;
21786;SDS011;11055;50.870;4.316;2023-11-19T04:07:40;18.75;;;3.55;;
21786;SDS011;11055;50.870;4.316;2023-11-19T04:10:05;24.92;;;3.45;;
21786;SDS011;11055;50.870;4.316;2023-11-19T04:12:31;25.27;;;4.22;;
21786;SDS011;11055;50.870;4.316;2023-11-19T04:14:57;26.85;;;3.95;;
21786;SDS011;11055;50.870;4.316;2023-11-19T04:17:23;19.27;;;4.00;;
21786;SDS011;11055;50.870;4.316;2023-11-19T04:19:49;29.48;;;5.35;;
21786;SDS011;11055;50.870;4.316;2023-11-19T04:22:14;32.30;;;4.50;;
21786;SDS011;11055;50.870;4.316;2023-11-19T04:24:40;17.67;;;3.58;;
21786;SDS011;11055;50.870;4.316;2023-11-19T04:27:06;19.80;;;4.20;;
21786;SDS011;11055;50.870;4.316;2023-11-19T04:29:32;23.02;;;3.92;;
21786;SDS011;11055;50.870;4.316;2023-11-19T04:31:57;16.88;;;3.13;;
21786;SDS011;11055;50.870;4.316;2023-11-19T04:34:24;20.65;;;3.97;;
21786;SDS011;11055;50.870;4.316;2023-11-19T04:36:50;24.25;;;3.67;;
21786;SDS011;11055;50.870;4.316;2023-11-19T04:39:16;24.40;;;5.13;;
21786;SDS011;11055;50.870;4.316;2023-11-19T04:41:46;22.30;;;3.70;;
21786;SDS011;11055;50.870;4.316;2023-11-19T04:44:17;31.02;;;4.97;;
21786;SDS011;11055;50.870;4.316;2023-11-19T04:46:43;27.52;;;4.50;;
21786;SDS011;11055;50.870;4.316;2023-11-19T04:49:09;26.73;;;4.78;;
21786;SDS011;11055;50.870;4.316;2023-11-19T04:51:39;25.60;;;4.55;;
21786;SDS011;11055;50.870;4.316;2023-11-19T04:54:09;24.30;;;5.03;;
21786;SDS011;11055;50.870;4.316;2023-11-19T04:56:35;30.70;;;4.82;;
21786;SDS011;11055;50.870;4.316;2023-11-19T04:59:05;30.63;;;5.10;;
21786;SDS011;11055;50.870;4.316;2023-11-19T05:01:34;28.40;;;4.50;;
21786;SDS011;11055;50.870;4.316;2023-11-19T05:04:00;25.63;;;4.72;;
21786;SDS011;11055;50.870;4.316;2023-11-19T05:06:27;22.75;;;4.03;;
21786;SDS011;11055;50.870;4.316;2023-11-19T05:08:56;22.27;;;4.18;;
21786;SDS011;11055;50.870;4.316;2023-11-19T05:11:27;21.98;;;4.95;;
21786;SDS011;11055;50.870;4.316;2023-11-19T05:13:53;23.92;;;5.00;;
21786;SDS011;11055;50.870;4.316;2023-11-19T05:16:19;29.73;;;4.68;;
21786;SDS011;11055;50.870;4.316;2023-11-19T05:18:46;35.97;;;6.00;;
21786;SDS011;11055;50.870;4.316;2023-11-19T05:21:13;23.00;;;4.57;;
21786;SDS011;11055;50.870;4.316;2023-11-19T05:23:39;23.13;;;4.22;;
21786;SDS011;11055;50.870;4.316;2023-11-19T05:26:06;30.58;;;5.13;;
21786;SDS011;11055;50.870;4.316;2023-11-19T05:28:32;25.55;;;4.88;;
21786;SDS011;11055;50.870;4.316;2023-11-19T05:30:58;29.65;;;5.32;;
21786;SDS011;11055;50.870;4.316;2023-11-19T05:33:23;23.33;;;4.65;;
21786;SDS011;11055;50.870;4.316;2023-11-19T05:35:49;26.90;;;5.03;;
21786;SDS011;11055;50.870;4.316;2023-11-19T05:38:14;27.52;;;5.15;;
21786;SDS011;11055;50.870;4.316;2023-11-19T05:40:43;26.10;;;4.97;;
21786;SDS011;11055;50.870;4.316;2023-11-19T05:43:09;27.52;;;4.35;;
21786;SDS011;11055;50.870;4.316;2023-11-19T05:45:34;28.30;;;4.40;;
21786;SDS011;11055;50.870;4.316;2023-11-19T05:48:00;31.15;;;5.00;;
21786;SDS011;11055;50.870;4.316;2023-11-19T05:50:29;35.20;;;5.25;;
21786;SDS011;11055;50.870;4.316;2023-11-19T05:52:54;27.50;;;4.40;;
21786;SDS011;11055;50.870;4.316;2023-11-19T05:55:20;31.23;;;4.55;;
21786;SDS011;11055;50.870;4.316;2023-11-19T05:57:48;28.60;;;4.90;;
21786;SDS011;11055;50.870;4.316;2023-11-19T06:00:14;29.67;;;5.20;;
21786;SDS011;11055;50.870;4.316;2023-11-19T06:02:40;30.05;;;4.90;;
21786;SDS011;11055;50.870;4.316;2023-11-19T06:05:06;31.45;;;5.30;;
21786;SDS011;11055;50.870;4.316;2023-11-19T06:07:32;31.25;;;5.60;;
21786;SDS011;11055;50.870;4.316;2023-11-19T06:09:58;38.05;;;6.07;;
21786;SDS011;11055;50.870;4.316;2023-11-19T06:12:24;27.60;;;4.82;;
21786;SDS011;11055;50.870;4.316;2023-11-19T06:14:49;30.42;;;5.40;;
21786;SDS011;11055;50.870;4.316;2023-11-19T06:17:15;28.20;;;5.10;;
21786;SDS011;11055;50.870;4.316;2023-11-19T06:19:41;30.05;;;5.00;;
21786;SDS011;11055;50.870;4.316;2023-11-19T06:22:06;30.33;;;5.45;;
21786;SDS011;11055;50.870;4.316;2023-11-19T06:24:32;26.70;;;5.00;;
21786;SDS011;11055;50.870;4.316;2023-11-19T06:26:58;28.67;;;5.15;;
21786;SDS011;11055;50.870;4.316;2023-11-19T06:29:23;30.05;;;4.72;;
21786;SDS011;11055;50.870;4.316;2023-11-19T06:31:49;27.77;;;4.88;;
21786;SDS011;11055;50.870;4.316;2023-11-19T06:34:15;26.98;;;5.05;;
21786;SDS011;11055;50.870;4.316;2023-11-19T06:36:41;25.38;;;4.90;;
21786;SDS011;11055;50.870;4.316;2023-11-19T06:39:08;28.40;;;5.22;;
21786;SDS011;11055;50.870;4.316;2023-11-19T06:41:35;25.45;;;4.68;;
21786;SDS011;11055;50.870;4.316;2023-11-19T06:44:05;24.08;;;4.70;;
21786;SDS011;11055;50.870;4.316;2023-11-19T06:46:31;29.50;;;5.32;;
21786;SDS011;11055;50.870;4.316;2023-11-19T06:48:57;31.65;;;5.18;;
21786;SDS011;11055;50.870;4.316;2023-11-19T06:51:24;32.50;;;5.75;;
21786;SDS011;11055;50.870;4.316;2023-11-19T06:53:50;29.38;;;5.82;;
21786;SDS011;11055;50.870;4.316;2023-11-19T06:58:46;27.23;;;5.30;;
21786;SDS011;11055;50.870;4.316;2023-11-19T07:01:12;28.02;;;5.45;;
21786;SDS011;11055;50.870;4.316;2023-11-19T07:03:38;27.33;;;5.07;;
21786;SDS011;11055;50.870;4.316;2023-11-19T07:06:04;31.30;;;5.63;;
21786;SDS011;11055;50.870;4.316;2023-11-19T07:08:30;31.60;;;4.75;;
21786;SDS011;11055;50.870;4.316;2023-11-19T07:10:56;36.35;;;5.55;;
21786;SDS011;11055;50.870;4.316;2023-11-19T07:13:22;27.83;;;5.18;;
21786;SDS011;11055;50.870;4.316;2023-11-19T07:15:47;29.80;;;4.32;;
21786;SDS011;11055;50.870;4.316;2023-11-19T07:18:13;27.00;;;4.72;;
21786;SDS011;11055;50.870;4.316;2023-11-19T07:20:39;25.50;;;5.25;;
21786;SDS011;11055;50.870;4.316;2023-11-19T07:23:05;28.52;;;5.35;;
21786;SDS011;11055;50.870;4.316;2023-11-19T07:25:31;32.17;;;5.22;;
21786;SDS011;11055;50.870;4.316;2023-11-19T07:27:56;27.63;;;5.00;;
21786;SDS011;11055;50.870;4.316;2023-11-19T07:30:22;32.20;;;5.60;;
21786;SDS011;11055;50.870;4.316;2023-11-19T07:32:48;26.55;;;4.65;;
21786;SDS011;11055;50.870;4.316;2023-11-19T07:35:13;25.42;;;4.90;;
21786;SDS011;11055;50.870;4.316;2023-11-19T07:37:40;38.25;;;5.10;;
21786;SDS011;11055;50.870;4.316;2023-11-19T07:40:07;31.02;;;5.93;;
21786;SDS011;11055;50.870;4.316;2023-11-19T07:42:33;26.10;;;4.93;;
21786;SDS011;11055;50.870;4.316;2023-11-19T07:44:59;30.30;;;5.43;;
21786;SDS011;11055;50.870;4.316;2023-11-19T07:47:24;27.38;;;5.28;;
21786;SDS011;11055;50.870;4.316;2023-11-19T07:49:50;25.30;;;4.93;;
21786;SDS011;11055;50.870;4.316;2023-11-19T07:52:19;23.92;;;4.93;;
21786;SDS011;11055;50.870;4.316;2023-11-19T07:54:44;37.42;;;6.05;;
21786;SDS011;11055;50.870;4.316;2023-11-19T07:57:10;23.75;;;4.85;;
21786;SDS011;11055;50.870;4.316;2023-11-19T07:59:36;28.17;;;5.03;;
21786;SDS011;11055;50.870;4.316;2023-11-19T08:02:01;32.60;;;5.13;;
21786;SDS011;11055;50.870;4.316;2023-11-19T08:04:28;30.80;;;4.88;;
21786;SDS011;11055;50.870;4.316;2023-11-19T08:06:54;27.92;;;4.47;;
21786;SDS011;11055;50.870;4.316;2023-11-19T08:09:19;27.88;;;4.88;;
21786;SDS011;11055;50.870;4.316;2023-11-19T08:11:46;25.63;;;4.88;;
21786;SDS011;11055;50.870;4.316;2023-11-19T08:14:11;21.75;;;4.22;;
21786;SDS011;11055;50.870;4.316;2023-11-19T08:16:38;24.40;;;4.68;;
21786;SDS011;11055;50.870;4.316;2023-11-19T08:19:05;23.80;;;4.63;;
21786;SDS011;11055;50.870;4.316;2023-11-19T08:21:30;22.42;;;4.90;;
21786;SDS011;11055;50.870;4.316;2023-11-19T08:23:56;31.02;;;5.00;;
21786;SDS011;11055;50.870;4.316;2023-11-19T08:26:22;28.50;;;5.00;;
21786;SDS011;11055;50.870;4.316;2023-11-19T08:28:48;23.88;;;4.85;;
21786;SDS011;11055;50.870;4.316;2023-11-19T08:31:13;27.27;;;4.75;;
21786;SDS011;11055;50.870;4.316;2023-11-19T08:33:39;27.80;;;4.47;;
21786;SDS011;11055;50.870;4.316;2023-11-19T08:36:05;28.42;;;5.35;;
21786;SDS011;11055;50.870;4.316;2023-11-19T08:38:31;37.58;;;5.80;;
21786;SDS011;11055;50.870;4.316;2023-11-19T08:40:57;43.47;;;13.85;;
21786;SDS011;11055;50.870;4.316;2023-11-19T08:43:25;56.92;;;19.77;;
21786;SDS011;11055;50.870;4.316;2023-11-19T08:45:51;32.47;;;7.35;;
21786;SDS011;11055;50.870;4.316;2023-11-19T08:48:16;29.88;;;5.93;;
21786;SDS011;11055;50.870;4.316;2023-11-19T08:50:42;32.03;;;5.38;;
21786;SDS011;11055;50.870;4.316;2023-11-19T08:53:08;33.20;;;11.40;;
21786;SDS011;11055;50.870;4.316;2023-11-19T08:55:33;29.75;;;5.55;;
21786;SDS011;11055;50.870;4.316;2023-11-19T08:57:59;43.08;;;13.23;;
21786;SDS011;11055;50.870;4.316;2023-11-19T09:00:25;31.08;;;9.82;;
21786;SDS011;11055;50.870;4.316;2023-11-19T09:02:50;29.33;;;10.77;;
21786;SDS011;11055;50.870;4.316;2023-11-19T09:05:16;25.77;;;6.10;;
21786;SDS011;11055;50.870;4.316;2023-11-19T09:07:42;31.52;;;7.25;;
21786;SDS011;11055;50.870;4.316;2023-11-19T09:10:07;33.28;;;7.18;;
21786;SDS011;11055;50.870;4.316;2023-11-19T09:12:34;30.80;;;7.95;;
21786;SDS011;11055;50.870;4.316;2023-11-19T09:15:00;24.25;;;4.97;;
21786;SDS011;11055;50.870;4.316;2023-11-19T09:17:25;27.08;;;5.05;;
21786;SDS011;11055;50.870;4.316;2023-11-19T09:19:51;24.13;;;4.43;;
21786;SDS011;11055;50.870;4.316;2023-11-19T09:22:17;32.42;;;7.47;;
21786;SDS011;11055;50.870;4.316;2023-11-19T09:24:42;20.83;;;6.13;;
21786;SDS011;11055;50.870;4.316;2023-11-19T09:27:09;24.80;;;5.00;;
21786;SDS011;11055;50.870;4.316;2023-11-19T09:29:35;32.72;;;5.97;;
21786;SDS011;11055;50.870;4.316;2023-11-19T09:32:01;26.05;;;4.80;;
21786;SDS011;11055;50.870;4.316;2023-11-19T09:34:27;21.00;;;4.47;;
21786;SDS011;11055;50.870;4.316;2023-11-19T09:36:53;20.45;;;4.80;;
21786;SDS011;11055;50.870;4.316;2023-11-19T09:39:18;22.73;;;5.60;;
21786;SDS011;11055;50.870;4.316;2023-11-19T09:41:45;26.95;;;7.10;;
21786;SDS011;11055;50.870;4.316;2023-11-19T09:44:11;21.35;;;4.85;;
21786;SDS011;11055;50.870;4.316;2023-11-19T09:46:38;21.25;;;4.13;;
21786;SDS011;11055;50.870;4.316;2023-11-19T09:49:06;20.90;;;4.50;;
21786;SDS011;11055;50.870;4.316;2023-11-19T09:51:34;30.75;;;5.95;;
21786;SDS011;11055;50.870;4.316;2023-11-19T09:54:00;22.35;;;4.90;;
21786;SDS011;11055;50.870;4.316;2023-11-19T09:56:26;26.00;;;4.35;;
21786;SDS011;11055;50.870;4.316;2023-11-19T09:58:54;21.08;;;5.18;;
21786;SDS011;11055;50.870;4.316;2023-11-19T10:01:20;30.15;;;8.93;;
21786;SDS011;11055;50.870;4.316;2023-11-19T10:03:49;19.58;;;4.82;;
21786;SDS011;11055;50.870;4.316;2023-11-19T10:06:16;20.87;;;4.83;;
21786;SDS011;11055;50.870;4.316;2023-11-19T10:08:44;22.10;;;5.30;;
21786;SDS011;11055;50.870;4.316;2023-11-19T10:11:09;24.75;;;7.57;;
21786;SDS011;11055;50.870;4.316;2023-11-19T10:13:36;23.67;;;5.32;;
21786;SDS011;11055;50.870;4.316;2023-11-19T10:16:09;21.02;;;5.85;;
21786;SDS011;11055;50.870;4.316;2023-11-19T10:18:37;27.80;;;5.55;;
21786;SDS011;11055;50.870;4.316;2023-11-19T10:21:14;21.70;;;5.95;;
21786;SDS011;11055;50.870;4.316;2023-11-19T10:23:51;25.67;;;5.40;;
21786;SDS011;11055;50.870;4.316;2023-11-19T10:26:21;19.70;;;3.97;;
21786;SDS011;11055;50.870;4.316;2023-11-19T10:28:48;22.80;;;4.35;;
21786;SDS011;11055;50.870;4.316;2023-11-19T10:31:14;26.10;;;4.80;;
21786;SDS011;11055;50.870;4.316;2023-11-19T10:33:40;17.38;;;3.90;;
21786;SDS011;11055;50.870;4.316;2023-11-19T10:36:07;20.48;;;4.10;;
21786;SDS011;11055;50.870;4.316;2023-11-19T10:38:33;20.10;;;4.80;;
21786;SDS011;11055;50.870;4.316;2023-11-19T10:40:59;20.70;;;4.13;;
21786;SDS011;11055;50.870;4.316;2023-11-19T10:43:24;22.50;;;3.88;;
21786;SDS011;11055;50.870;4.316;2023-11-19T10:45:50;23.40;;;4.07;;
21786;SDS011;11055;50.870;4.316;2023-11-19T10:48:17;18.00;;;3.33;;
21786;SDS011;11055;50.870;4.316;2023-11-19T10:50:44;19.02;;;3.97;;
21786;SDS011;11055;50.870;4.316;2023-11-19T10:53:11;16.85;;;3.65;;
21786;SDS011;11055;50.870;4.316;2023-11-19T10:55:43;12.35;;;3.20;;
21786;SDS011;11055;50.870;4.316;2023-11-19T10:58:13;10.57;;;2.53;;
21786;SDS011;11055;50.870;4.316;2023-11-19T11:00:44;18.52;;;3.90;;
21786;SDS011;11055;50.870;4.316;2023-11-19T11:03:17;18.58;;;3.53;;
21786;SDS011;11055;50.870;4.316;2023-11-19T11:05:46;16.50;;;3.90;;
21786;SDS011;11055;50.870;4.316;2023-11-19T11:08:13;18.05;;;3.70;;
21786;SDS011;11055;50.870;4.316;2023-11-19T11:10:42;18.98;;;4.63;;
21786;SDS011;11055;50.870;4.316;2023-11-19T11:13:09;13.80;;;3.78;;
21786;SDS011;11055;50.870;4.316;2023-11-19T11:15:37;27.60;;;6.50;;
21786;SDS011;11055;50.870;4.316;2023-11-19T11:18:03;23.20;;;6.82;;
21786;SDS011;11055;50.870;4.316;2023-11-19T11:20:33;20.23;;;5.07;;
21786;SDS011;11055;50.870;4.316;2023-11-19T11:29:03;17.60;;;4.72;;
21786;SDS011;11055;50.870;4.316;2023-11-19T11:31:58;30.90;;;10.52;;
21786;SDS011;11055;50.870;4.316;2023-11-19T11:39:57;26.60;;;5.55;;
21786;SDS011;11055;50.870;4.316;2023-11-19T11:45:07;33.55;;;10.52;;
21786;SDS011;11055;50.870;4.316;2023-11-19T11:58:05;20.02;;;4.28;;
21786;SDS011;11055;50.870;4.316;2023-11-19T12:03:07;20.73;;;4.35;;
21786;SDS011;11055;50.870;4.316;2023-11-19T12:05:33;24.10;;;6.22;;
21786;SDS011;11055;50.870;4.316;2023-11-19T12:08:07;30.23;;;11.93;;
21786;SDS011;11055;50.870;4.316;2023-11-19T12:10:37;24.10;;;7.80;;
21786;SDS011;11055;50.870;4.316;2023-11-19T12:13:09;22.77;;;7.13;;
21786;SDS011;11055;50.870;4.316;2023-11-19T12:16:06;19.75;;;5.28;;
21786;SDS011;11055;50.870;4.316;2023-11-19T12:18:32;18.33;;;4.03;;
21786;SDS011;11055;50.870;4.316;2023-11-19T12:21:01;17.63;;;3.80;;
21786;SDS011;11055;50.870;4.316;2023-11-19T12:23:30;17.60;;;3.67;;
21786;SDS011;11055;50.870;4.316;2023-11-19T12:25:57;17.27;;;3.42;;
21786;SDS011;11055;50.870;4.316;2023-11-19T12:28:23;30.73;;;10.93;;
21786;SDS011;11055;50.870;4.316;2023-11-19T12:30:51;15.65;;;4.18;;
21786;SDS011;11055;50.870;4.316;2023-11-19T12:33:18;16.88;;;3.95;;
21786;SDS011;11055;50.870;4.316;2023-11-19T12:35:48;24.73;;;5.72;;
21786;SDS011;11055;50.870;4.316;2023-11-19T12:38:20;20.58;;;4.18;;
21786;SDS011;11055;50.870;4.316;2023-11-19T12:40:47;21.98;;;5.32;;
21786;SDS011;11055;50.870;4.316;2023-11-19T12:43:27;19.17;;;5.55;;
21786;SDS011;11055;50.870;4.316;2023-11-19T12:45:53;22.30;;;4.65;;
21786;SDS011;11055;50.870;4.316;2023-11-19T12:48:19;23.45;;;5.05;;
21786;SDS011;11055;50.870;4.316;2023-11-19T12:50:54;22.85;;;6.22;;
21786;SDS011;11055;50.870;4.316;2023-11-19T12:53:22;22.30;;;6.38;;
21786;SDS011;11055;50.870;4.316;2023-11-19T12:55:49;17.25;;;4.10;;
21786;SDS011;11055;50.870;4.316;2023-11-19T12:58:30;26.20;;;5.75;;
21786;SDS011;11055;50.870;4.316;2023-11-19T13:01:06;44.22;;;16.83;;
21786;SDS011;11055;50.870;4.316;2023-11-19T13:03:32;19.52;;;5.07;;
21786;SDS011;11055;50.870;4.316;2023-11-19T13:06:06;27.13;;;5.60;;
21786;SDS011;11055;50.870;4.316;2023-11-19T13:08:37;22.77;;;5.43;;
21786;SDS011;11055;50.870;4.316;2023-11-19T13:11:04;23.67;;;5.18;;
21786;SDS011;11055;50.870;4.316;2023-11-19T13:13:31;21.08;;;4.75;;
21786;SDS011;11055;50.870;4.316;2023-11-19T13:16:03;24.08;;;4.68;;
21786;SDS011;11055;50.870;4.316;2023-11-19T13:18:34;23.17;;;5.35;;
21786;SDS011;11055;50.870;4.316;2023-11-19T13:20:59;22.10;;;4.72;;
21786;SDS011;11055;50.870;4.316;2023-11-19T13:23:25;18.17;;;4.05;;
21786;SDS011;11055;50.870;4.316;2023-11-19T13:25:51;21.00;;;4.00;;
21786;SDS011;11055;50.870;4.316;2023-11-19T13:28:17;18.60;;;4.20;;
21786;SDS011;11055;50.870;4.316;2023-11-19T13:30:42;18.50;;;3.17;;
21786;SDS011;11055;50.870;4.316;2023-11-19T13:33:08;20.83;;;4.15;;
21786;SDS011;11055;50.870;4.316;2023-11-19T13:35:37;17.67;;;3.72;;
21786;SDS011;11055;50.870;4.316;2023-11-19T13:38:05;20.48;;;4.47;;
21786;SDS011;11055;50.870;4.316;2023-11-19T13:40:31;20.83;;;4.70;;
21786;SDS011;11055;50.870;4.316;2023-11-19T13:42:57;25.17;;;5.38;;
21786;SDS011;11055;50.870;4.316;2023-11-19T13:45:22;18.50;;;4.55;;
21786;SDS011;11055;50.870;4.316;2023-11-19T13:47:48;19.42;;;4.15;;
21786;SDS011;11055;50.870;4.316;2023-11-19T13:50:14;19.60;;;3.97;;
21786;SDS011;11055;50.870;4.316;2023-11-19T13:52:45;19.67;;;4.60;;
21786;SDS011;11055;50.870;4.316;2023-11-19T13:55:12;17.42;;;3.95;;
21786;SDS011;11055;50.870;4.316;2023-11-19T13:57:39;19.80;;;4.32;;
21786;SDS011;11055;50.870;4.316;2023-11-19T14:00:06;15.07;;;3.80;;
21786;SDS011;11055;50.870;4.316;2023-11-19T14:02:41;19.02;;;3.83;;
21786;SDS011;11055;50.870;4.316;2023-11-19T14:05:08;25.55;;;5.03;;
21786;SDS011;11055;50.870;4.316;2023-11-19T14:07:35;27.30;;;5.05;;
21786;SDS011;11055;50.870;4.316;2023-11-19T14:10:01;22.23;;;4.70;;
21786;SDS011;11055;50.870;4.316;2023-11-19T14:12:28;21.83;;;4.57;;
21786;SDS011;11055;50.870;4.316;2023-11-19T14:14:53;25.55;;;4.57;;
21786;SDS011;11055;50.870;4.316;2023-11-19T14:17:19;19.25;;;4.35;;
21786;SDS011;11055;50.870;4.316;2023-11-19T14:19:45;22.95;;;5.00;;
21786;SDS011;11055;50.870;4.316;2023-11-19T14:22:11;19.38;;;4.57;;
21786;SDS011;11055;50.870;4.316;2023-11-19T14:24:37;29.05;;;5.28;;
21786;SDS011;11055;50.870;4.316;2023-11-19T14:27:03;22.33;;;4.38;;
21786;SDS011;11055;50.870;4.316;2023-11-19T14:29:29;24.15;;;5.28;;
21786;SDS011;11055;50.870;4.316;2023-11-19T14:31:55;19.40;;;3.85;;
21786;SDS011;11055;50.870;4.316;2023-11-19T14:34:21;18.30;;;4.22;;
21786;SDS011;11055;50.870;4.316;2023-11-19T14:36:47;25.77;;;4.72;;
21786;SDS011;11055;50.870;4.316;2023-11-19T14:39:14;25.67;;;4.10;;
21786;SDS011;11055;50.870;4.316;2023-11-19T14:41:39;23.55;;;4.25;;
21786;SDS011;11055;50.870;4.316;2023-11-19T14:44:05;23.13;;;4.15;;
21786;SDS011;11055;50.870;4.316;2023-11-19T14:46:33;24.63;;;4.70;;
21786;SDS011;11055;50.870;4.316;2023-11-19T14:48:59;23.40;;;4.40;;
21786;SDS011;11055;50.870;4.316;2023-11-19T14:51:25;24.98;;;4.95;;
21786;SDS011;11055;50.870;4.316;2023-11-19T14:53:50;17.77;;;4.10;;
21786;SDS011;11055;50.870;4.316;2023-11-19T14:56:16;23.58;;;4.00;;
21786;SDS011;11055;50.870;4.316;2023-11-19T14:58:42;19.15;;;3.83;;
21786;SDS011;11055;50.870;4.316;2023-11-19T15:01:12;25.83;;;4.32;;